createdAt,value
2023-02-16T00:00:19.504Z,55.08
2023-02-16T00:02:48.207Z,55.20
2023-02-16T00:05:26.303Z,55.25
2023-02-16T00:07:55.664Z,55.35
2023-02-16T00:10:24.140Z,55.21
2023-02-16T00:13:11.900Z,55.23
2023-02-16T00:15:40.862Z,55.07
2023-02-16T00:18:18.466Z,55.22
2023-02-16T00:20:47.225Z,55.23
2023-02-16T00:23:15.545Z,55.42
2023-02-16T00:25:43.987Z,55.52
2023-02-16T00:28:19.601Z,55.11
2023-02-16T00:30:50.189Z,55.17
2023-02-16T00:33:21.373Z,55.07
2023-02-16T00:35:50.095Z,55.19
2023-02-16T00:38:18.344Z,55.19
2023-02-16T00:40:46.741Z,55.33
2023-02-16T00:43:26.911Z,55.22
2023-02-16T00:45:56.360Z,55.09
2023-02-16T00:48:25.280Z,54.94
2023-02-16T00:50:53.508Z,55.24
2023-02-16T00:53:21.735Z,55.02
2023-02-16T00:55:50.060Z,55.10
2023-02-16T00:58:26.182Z,54.95
2023-02-16T01:00:59.743Z,55.19
2023-02-16T01:03:30.537Z,55.26
2023-02-16T01:06:12.743Z,55.07
2023-02-16T01:08:58.377Z,54.98
2023-02-16T01:11:27.039Z,55.19
2023-02-16T01:13:58.161Z,55.07
2023-02-16T01:16:28.890Z,55.32
2023-02-16T01:18:57.144Z,55.13
2023-02-16T01:21:25.344Z,54.99
2023-02-16T01:23:53.577Z,55.19
2023-02-16T01:26:22.590Z,55.04
2023-02-16T01:28:50.863Z,55.06
2023-02-16T01:31:20.624Z,54.98
2023-02-16T01:33:50.662Z,55.22
2023-02-16T01:36:25.231Z,55.04
2023-02-16T01:38:53.514Z,55.28
2023-02-16T01:41:36.702Z,55.11
2023-02-16T01:44:07.187Z,54.96
2023-02-16T01:46:49.273Z,55.04
2023-02-16T01:49:20.916Z,54.82
2023-02-16T01:51:57.976Z,55.03
2023-02-16T01:54:42.316Z,55.02
2023-02-16T01:57:24.644Z,54.88
2023-02-16T02:00:17.403Z,54.82
2023-02-16T02:02:49.814Z,55.06
2023-02-16T02:05:37.070Z,55.09
2023-02-16T02:08:16.319Z,54.84
2023-02-16T02:10:58.849Z,54.89
2023-02-16T02:13:34.309Z,54.85
2023-02-16T02:16:03.263Z,54.87
2023-02-16T02:18:33.012Z,54.85
2023-02-16T02:22:03.358Z,54.87
2023-02-16T02:25:02.686Z,55.02
2023-02-16T02:27:34.743Z,54.76
2023-02-16T02:30:30.177Z,55.27
2023-02-16T02:33:25.196Z,55.13
2023-02-16T02:36:07.375Z,54.92
2023-02-16T02:38:49.250Z,54.82
2023-02-16T02:41:45.874Z,55.04
2023-02-16T02:44:19.036Z,55.09
2023-02-16T02:46:48.236Z,55.04
2023-02-16T02:49:17.172Z,55.02
2023-02-16T02:51:45.493Z,55.05
2023-02-16T02:54:35.888Z,55.15
2023-02-16T02:57:27.522Z,54.88
2023-02-16T03:00:20.155Z,54.88
2023-02-16T03:02:52.596Z,54.95
2023-02-16T03:05:23.471Z,55.18
2023-02-16T03:07:57.433Z,54.94
2023-02-16T03:11:00.723Z,55.01
2023-02-16T03:13:34.843Z,55.04
2023-02-16T03:16:09.531Z,54.86
2023-02-16T03:18:58.412Z,54.80
2023-02-16T03:21:45.819Z,55.04
2023-02-16T03:24:38.252Z,54.89
2023-02-16T03:27:24.818Z,55.08
2023-02-16T03:29:54.225Z,54.89
2023-02-16T03:32:24.215Z,55.09
2023-02-16T03:34:52.580Z,54.94
2023-02-16T03:37:21.238Z,54.85
2023-02-16T03:40:08.156Z,54.89
2023-02-16T03:42:36.477Z,55.00
2023-02-16T03:45:05.150Z,55.03
2023-02-16T03:47:34.778Z,55.12
2023-02-16T03:50:03.009Z,55.15
2023-02-16T03:52:31.263Z,55.23
2023-02-16T03:55:00.533Z,55.15
2023-02-16T03:57:28.841Z,55.11
2023-02-16T03:59:59.236Z,55.21
2023-02-16T04:02:28.860Z,55.21
2023-02-16T04:04:58.568Z,55.21
2023-02-16T04:07:26.819Z,54.99
2023-02-16T04:09:55.057Z,55.05
2023-02-16T04:12:37.551Z,55.12
2023-02-16T04:15:08.618Z,55.02
2023-02-16T04:17:37.072Z,55.09
2023-02-16T04:20:11.937Z,55.30
2023-02-16T04:22:40.358Z,55.45
2023-02-16T04:25:09.661Z,55.05
2023-02-16T04:27:39.007Z,55.01
2023-02-16T04:30:10.156Z,55.07
2023-02-16T04:32:38.500Z,55.26
2023-02-16T04:35:08.993Z,55.32
2023-02-16T04:37:37.605Z,55.24
2023-02-16T04:40:08.607Z,55.03
2023-02-16T04:42:36.869Z,54.95
2023-02-16T04:45:05.535Z,54.99
2023-02-16T04:47:33.789Z,54.96
2023-02-16T04:50:02.123Z,54.94
2023-02-16T04:52:32.203Z,54.99
2023-02-16T04:55:00.481Z,55.28
2023-02-16T04:57:28.890Z,54.99
2023-02-16T04:59:57.177Z,55.10
2023-02-16T05:02:25.421Z,55.37
2023-02-16T05:04:53.706Z,55.08
2023-02-16T05:07:21.964Z,55.11
2023-02-16T05:09:51.785Z,55.13
2023-02-16T05:12:37.595Z,55.01
2023-02-16T05:15:07.455Z,54.91
2023-02-16T05:17:35.671Z,55.12
2023-02-16T05:20:04.043Z,54.95
2023-02-16T05:22:33.585Z,55.20
2023-02-16T05:25:03.281Z,54.93
2023-02-16T05:27:32.203Z,54.96
2023-02-16T05:30:00.943Z,55.21
2023-02-16T05:32:29.410Z,55.05
2023-02-16T05:34:57.602Z,55.10
2023-02-16T05:37:25.880Z,55.15
2023-02-16T05:39:54.207Z,55.04
2023-02-16T05:42:23.824Z,55.32
2023-02-16T05:44:52.023Z,54.88
2023-02-16T05:47:20.230Z,55.00
2023-02-16T05:49:48.476Z,55.14
2023-02-16T05:52:16.758Z,55.03
2023-02-16T05:54:45.064Z,55.34
2023-02-16T05:57:13.308Z,55.02
2023-02-16T05:59:42.899Z,54.98
2023-02-16T06:02:11.414Z,54.98
2023-02-16T06:04:39.729Z,54.99
2023-02-16T06:07:08.022Z,55.16
2023-02-16T06:09:36.314Z,55.14
2023-02-16T06:12:05.125Z,55.04
2023-02-16T06:14:33.406Z,55.27
2023-02-16T06:17:03.775Z,55.06
2023-02-16T06:19:32.465Z,55.08
2023-02-16T06:22:00.737Z,55.24
2023-02-16T06:24:29.652Z,55.28
2023-02-16T06:26:58.028Z,55.31
2023-02-16T06:29:26.637Z,55.21
2023-02-16T06:31:54.983Z,55.09
2023-02-16T06:34:24.803Z,55.02
2023-02-16T06:36:53.054Z,55.37
2023-02-16T06:39:21.449Z,55.48
2023-02-16T06:41:49.722Z,55.16
2023-02-16T06:44:18.514Z,55.03
2023-02-16T06:46:48.715Z,55.11
2023-02-16T06:49:19.083Z,55.19
2023-02-16T06:51:49.606Z,54.95
2023-02-16T06:54:19.254Z,55.02
2023-02-16T06:56:47.584Z,55.09
2023-02-16T06:59:16.060Z,54.79
2023-02-16T07:01:45.459Z,54.92
2023-02-16T07:04:14.190Z,54.76
2023-02-16T07:06:42.858Z,55.06
2023-02-16T07:09:13.046Z,55.05
2023-02-16T07:11:41.518Z,55.45
2023-02-16T07:14:09.741Z,55.08
2023-02-16T07:16:38.271Z,55.38
2023-02-16T07:19:06.994Z,55.47
2023-02-16T07:21:35.609Z,55.38
2023-02-16T07:24:04.186Z,55.32
2023-02-16T07:26:33.863Z,55.24
2023-02-16T07:29:02.132Z,55.40
2023-02-16T07:31:30.439Z,55.38
2023-02-16T07:33:58.751Z,55.54
2023-02-16T07:36:27.073Z,55.25
2023-02-16T07:38:55.725Z,55.43
2023-02-16T07:41:23.952Z,55.27
2023-02-16T07:43:53.527Z,55.30
2023-02-16T07:46:21.799Z,55.28
2023-02-16T07:48:50.226Z,55.35
2023-02-16T07:51:23.706Z,55.15
2023-02-16T07:53:52.213Z,55.33
2023-02-16T07:56:21.932Z,55.45
2023-02-16T07:58:54.029Z,55.32
2023-02-16T08:01:23.154Z,55.34
2023-02-16T08:03:52.134Z,55.53
2023-02-16T08:06:21.355Z,55.57
2023-02-16T08:08:50.011Z,55.52
2023-02-16T08:11:20.484Z,55.59
2023-02-16T08:13:49.327Z,55.74
2023-02-16T08:16:21.350Z,55.48
2023-02-16T08:18:51.309Z,55.68
2023-02-16T08:21:23.673Z,55.38
2023-02-16T08:23:57.386Z,55.32
2023-02-16T08:26:28.756Z,55.44
2023-02-16T08:28:59.579Z,55.66
2023-02-16T08:31:32.283Z,55.75
2023-02-16T08:34:03.049Z,55.57
2023-02-16T08:36:34.562Z,55.83
2023-02-16T08:39:05.143Z,55.89
2023-02-16T08:41:36.186Z,55.71
2023-02-16T08:44:05.799Z,55.79
2023-02-16T08:46:37.402Z,55.79
2023-02-16T08:49:06.198Z,55.78
2023-02-16T08:51:38.040Z,55.93
2023-02-16T08:54:08.574Z,55.85
2023-02-16T08:56:37.972Z,56.03
2023-02-16T08:59:06.196Z,56.06
2023-02-16T09:01:35.960Z,56.05
2023-02-16T09:04:04.240Z,55.80
2023-02-16T09:06:33.101Z,56.17
2023-02-16T09:09:01.421Z,55.89
2023-02-16T09:11:29.694Z,55.87
2023-02-16T09:13:58.459Z,56.17
2023-02-16T09:16:29.228Z,56.01
2023-02-16T09:18:58.895Z,56.25
2023-02-16T09:21:27.422Z,56.07
2023-02-16T09:23:58.251Z,55.80
2023-02-16T09:26:29.259Z,56.07
2023-02-16T09:28:59.118Z,55.88
2023-02-16T09:31:31.144Z,55.92
2023-02-16T09:34:04.781Z,56.04
2023-02-16T09:36:33.779Z,56.08
2023-02-16T09:39:02.461Z,56.11
2023-02-16T09:41:44.703Z,55.80
2023-02-16T09:44:39.315Z,56.13
2023-02-16T09:47:22.387Z,56.18
2023-02-16T09:49:54.029Z,56.22
2023-02-16T09:52:31.194Z,56.02
2023-02-16T09:55:01.442Z,56.04
2023-02-16T09:57:43.585Z,55.92
2023-02-16T10:00:28.096Z,56.00
2023-02-16T10:03:03.998Z,56.24
2023-02-16T10:05:46.395Z,56.13
2023-02-16T10:08:18.108Z,56.03
2023-02-16T10:10:52.023Z,56.35
2023-02-16T10:13:32.052Z,56.53
2023-02-16T10:16:02.960Z,56.77
2023-02-16T10:18:35.296Z,56.63
2023-02-16T10:21:15.334Z,56.58
2023-02-16T10:23:50.402Z,56.30
2023-02-16T10:26:24.550Z,56.36
2023-02-16T10:28:58.816Z,56.24
2023-02-16T10:31:35.404Z,56.07
2023-02-16T10:34:21.274Z,55.96
2023-02-16T10:37:22.264Z,56.02
2023-02-16T10:40:04.159Z,56.36
2023-02-16T10:42:41.886Z,56.15
2023-02-16T10:45:27.139Z,55.94
2023-02-16T10:47:55.935Z,56.07
2023-02-16T10:50:29.570Z,56.59
2023-02-16T10:53:03.047Z,56.55
2023-02-16T10:55:31.333Z,56.96
2023-02-16T10:58:02.639Z,56.17
2023-02-16T11:00:48.349Z,56.08
2023-02-16T11:03:17.484Z,56.27
2023-02-16T11:05:45.768Z,56.12
2023-02-16T11:08:15.427Z,56.07
2023-02-16T11:10:50.500Z,55.55
2023-02-16T11:13:29.291Z,55.50
2023-02-16T11:16:01.828Z,54.95
2023-02-16T11:18:37.878Z,54.79
2023-02-16T11:21:08.044Z,54.13
2023-02-16T11:23:40.501Z,53.74
2023-02-16T11:26:24.131Z,53.37
2023-02-16T11:28:53.746Z,53.08
2023-02-16T11:31:30.264Z,52.78
2023-02-16T11:34:05.482Z,52.08
2023-02-16T11:36:37.648Z,51.71
2023-02-16T11:39:16.655Z,51.80
2023-02-16T11:41:47.152Z,51.26
2023-02-16T11:44:29.063Z,50.71
2023-02-16T11:46:58.800Z,49.95
2023-02-16T11:49:34.469Z,49.71
2023-02-16T11:52:22.279Z,49.37
2023-02-16T11:54:53.944Z,49.01
2023-02-16T11:57:28.546Z,49.00
2023-02-16T11:59:58.734Z,48.95
2023-02-16T12:03:10.858Z,49.10
2023-02-16T12:05:58.290Z,48.95
2023-02-16T12:08:42.995Z,49.12
2023-02-16T12:11:29.274Z,49.10
2023-02-16T12:14:14.345Z,49.07
2023-02-16T12:16:51.967Z,48.74
2023-02-16T12:19:34.949Z,48.78
2023-02-16T12:22:17.157Z,48.51
2023-02-16T12:24:57.918Z,48.23
2023-02-16T12:27:35.342Z,48.00
2023-02-16T12:30:19.948Z,48.01
2023-02-16T12:33:06.355Z,48.03
2023-02-16T12:36:05.477Z,48.34
2023-02-16T12:38:47.904Z,48.05
2023-02-16T12:41:29.332Z,47.84
2023-02-16T12:44:03.890Z,47.81
2023-02-16T12:46:37.723Z,47.43
2023-02-16T12:49:15.093Z,47.61
2023-02-16T12:51:49.903Z,47.56
2023-02-16T12:54:25.283Z,47.26
2023-02-16T12:57:01.853Z,47.29
2023-02-16T12:59:40.251Z,47.18
2023-02-16T13:02:19.859Z,47.07
2023-02-16T13:04:55.789Z,46.90
2023-02-16T13:07:30.798Z,47.08
2023-02-16T13:10:05.845Z,47.24
2023-02-16T13:12:40.009Z,47.32
2023-02-16T13:15:15.675Z,47.13
2023-02-16T13:17:49.524Z,46.98
2023-02-16T13:20:20.736Z,46.72
2023-02-16T13:23:30.422Z,46.95
2023-02-16T13:26:19.015Z,46.71
2023-02-16T13:29:22.844Z,46.81
2023-02-16T13:32:09.208Z,46.36
2023-02-16T13:35:23.189Z,46.01
2023-02-16T13:38:06.630Z,45.58
2023-02-16T13:41:06.643Z,45.33
2023-02-16T13:43:37.708Z,44.58
2023-02-16T13:46:14.889Z,44.67
2023-02-16T13:48:52.933Z,44.55
2023-02-16T13:51:25.168Z,44.22
2023-02-16T13:53:57.910Z,44.14
2023-02-16T13:56:36.464Z,44.16
2023-02-16T13:59:55.915Z,44.11
2023-02-16T14:03:00.380Z,44.44
2023-02-16T14:05:41.668Z,44.22
2023-02-16T14:08:25.547Z,44.30
2023-02-16T14:11:10.969Z,44.05
2023-02-16T14:13:51.340Z,44.19
2023-02-16T14:16:34.930Z,44.47
2023-02-16T14:19:21.135Z,44.39
2023-02-16T14:21:52.073Z,44.23
2023-02-16T14:24:35.725Z,44.49
2023-02-16T14:27:06.321Z,44.56
2023-02-16T14:29:39.473Z,44.49
2023-02-16T14:32:24.384Z,44.62
2023-02-16T14:34:57.962Z,44.62
2023-02-16T14:37:37.519Z,44.80
2023-02-16T14:40:19.593Z,44.88
2023-02-16T14:42:58.231Z,44.99
2023-02-16T14:46:29.026Z,45.03
2023-02-16T14:49:48.678Z,45.22
2023-02-16T14:53:07.064Z,45.35
2023-02-16T14:56:18.393Z,45.50
2023-02-16T14:58:56.416Z,45.55
2023-02-16T15:01:26.220Z,45.54
2023-02-16T15:03:58.098Z,45.55
2023-02-16T15:06:34.549Z,45.75
2023-02-16T15:09:15.978Z,45.88
2023-02-16T15:12:08.927Z,45.80
2023-02-16T15:14:45.202Z,46.03
2023-02-16T15:17:28.073Z,46.03
2023-02-16T15:20:05.356Z,46.08
2023-02-16T15:22:33.798Z,46.27
2023-02-16T15:25:08.755Z,46.22
2023-02-16T15:27:37.234Z,46.31
2023-02-16T15:30:10.448Z,46.28
2023-02-16T15:32:39.026Z,46.40
2023-02-16T15:35:24.621Z,46.43
2023-02-16T15:38:03.146Z,46.63
2023-02-16T15:40:35.184Z,46.57
2023-02-16T15:43:20.985Z,46.61
2023-02-16T15:45:52.987Z,46.70
2023-02-16T15:48:29.321Z,46.56
2023-02-16T15:51:03.373Z,46.66
2023-02-16T15:53:38.257Z,46.93
2023-02-16T15:56:29.542Z,47.07
2023-02-16T15:59:00.915Z,47.15
2023-02-16T16:01:34.069Z,47.33
2023-02-16T16:04:06.987Z,47.22
2023-02-16T16:06:38.794Z,47.29
2023-02-16T16:09:08.637Z,47.57
2023-02-16T16:11:38.959Z,47.66
2023-02-16T16:14:08.315Z,47.81
2023-02-16T16:16:36.893Z,47.92
2023-02-16T16:19:16.828Z,48.19
2023-02-16T16:21:54.413Z,48.10
2023-02-16T16:24:35.055Z,48.37
2023-02-16T16:27:08.560Z,48.50
2023-02-16T16:29:42.051Z,48.50
2023-02-16T16:32:21.330Z,48.67
2023-02-16T16:34:50.761Z,48.56
2023-02-16T16:37:29.437Z,48.80
2023-02-16T16:40:05.711Z,48.98
2023-02-16T16:42:39.192Z,49.00
2023-02-16T16:45:35.713Z,48.94
2023-02-16T16:48:11.249Z,49.20
2023-02-16T16:50:40.688Z,49.02
2023-02-16T16:53:45.712Z,49.25
2023-02-16T16:56:15.254Z,49.57
2023-02-16T16:58:45.004Z,49.38
2023-02-16T17:01:14.474Z,49.47
2023-02-16T17:03:43.230Z,49.83
2023-02-16T17:06:11.953Z,49.71
2023-02-16T17:08:41.356Z,49.67
2023-02-16T17:11:13.646Z,49.85
2023-02-16T17:13:42.064Z,49.47
2023-02-16T17:16:18.102Z,49.86
2023-02-16T17:18:46.533Z,49.82
2023-02-16T17:21:15.703Z,49.93
2023-02-16T17:23:52.510Z,50.01
2023-02-16T17:26:22.214Z,50.07
2023-02-16T17:28:51.086Z,50.23
2023-02-16T17:31:20.923Z,50.09
2023-02-16T17:33:49.330Z,50.31
2023-02-16T17:36:18.358Z,50.26
2023-02-16T17:38:46.877Z,50.26
2023-02-16T17:41:22.795Z,50.45
2023-02-16T17:43:51.574Z,50.53
2023-02-16T17:46:24.069Z,50.80
2023-02-16T17:48:55.139Z,50.88
2023-02-16T17:51:26.170Z,51.01
2023-02-16T17:53:55.656Z,50.85
2023-02-16T17:56:25.413Z,50.81
2023-02-16T17:58:53.728Z,51.20
2023-02-16T18:01:23.969Z,51.28
2023-02-16T18:03:53.081Z,50.91
2023-02-16T18:06:28.105Z,51.13
2023-02-16T18:08:57.175Z,51.29
2023-02-16T18:11:25.538Z,51.11
2023-02-16T18:13:53.986Z,50.95
2023-02-16T18:16:28.534Z,51.53
2023-02-16T18:18:58.133Z,51.16
2023-02-16T18:21:26.449Z,51.43
2023-02-16T18:23:54.725Z,51.30
2023-02-16T18:26:23.790Z,51.27
2023-02-16T18:28:52.036Z,51.24
2023-02-16T18:31:20.624Z,51.46
2023-02-16T18:33:50.321Z,51.47
2023-02-16T18:36:18.792Z,51.75
2023-02-16T18:38:47.052Z,51.96
2023-02-16T18:41:15.471Z,51.85
2023-02-16T18:43:43.744Z,51.70
2023-02-16T18:46:12.240Z,51.79
2023-02-16T18:48:40.660Z,51.91
2023-02-16T18:51:12.312Z,51.81
2023-02-16T18:53:41.010Z,52.06
2023-02-16T18:56:12.465Z,52.26
2023-02-16T18:58:40.932Z,52.00
2023-02-16T19:01:16.159Z,52.03
2023-02-16T19:03:44.574Z,51.97
2023-02-16T19:06:14.221Z,51.99
2023-02-16T19:08:42.519Z,51.82
2023-02-16T19:11:10.826Z,51.94
2023-02-16T19:13:39.066Z,52.07
2023-02-16T19:16:08.319Z,51.96
2023-02-16T19:18:36.901Z,51.69
2023-02-16T19:21:07.876Z,51.88
2023-02-16T19:23:38.419Z,52.08
2023-02-16T19:26:08.566Z,51.84
2023-02-16T19:28:36.788Z,51.90
2023-02-16T19:31:08.126Z,51.88
2023-02-16T19:33:36.977Z,52.36
2023-02-16T19:36:08.480Z,51.92
2023-02-16T19:38:38.634Z,52.15
2023-02-16T19:41:12.064Z,52.08
2023-02-16T19:43:41.099Z,52.31
2023-02-16T19:46:10.371Z,51.95
2023-02-16T19:48:39.722Z,52.46
2023-02-16T19:51:09.777Z,52.43
2023-02-16T19:53:40.691Z,52.12
2023-02-16T19:56:11.272Z,52.07
2023-02-16T19:58:40.062Z,52.03
2023-02-16T20:01:10.255Z,52.20
2023-02-16T20:03:38.672Z,52.05
2023-02-16T20:06:15.828Z,52.29
2023-02-16T20:08:46.266Z,52.13
2023-02-16T20:11:15.597Z,52.22
2023-02-16T20:13:44.328Z,52.64
2023-02-16T20:16:15.189Z,52.32
2023-02-16T20:18:44.278Z,52.43
2023-02-16T20:21:15.036Z,52.39
2023-02-16T20:23:45.835Z,52.43
2023-02-16T20:26:17.860Z,52.47
2023-02-16T20:28:47.137Z,52.57
2023-02-16T20:31:19.253Z,52.72
2023-02-16T20:33:47.879Z,52.50
2023-02-16T20:36:17.165Z,52.49
2023-02-16T20:38:47.304Z,52.52
2023-02-16T20:41:15.930Z,52.50
2023-02-16T20:43:44.907Z,52.63
2023-02-16T20:46:14.990Z,52.68
2023-02-16T20:48:43.249Z,52.47
2023-02-16T20:51:13.933Z,52.57
2023-02-16T20:53:42.244Z,52.52
2023-02-16T20:56:15.865Z,52.53
2023-02-16T20:58:46.640Z,52.66
2023-02-16T21:01:16.719Z,52.78
2023-02-16T21:03:45.296Z,52.75
2023-02-16T21:06:13.807Z,52.29
2023-02-16T21:08:42.153Z,52.56
2023-02-16T21:11:11.912Z,52.52
2023-02-16T21:13:41.893Z,52.46
2023-02-16T21:16:10.592Z,52.77
2023-02-16T21:18:40.608Z,52.49
2023-02-16T21:21:09.968Z,52.41
2023-02-16T21:23:38.388Z,52.58
2023-02-16T21:26:07.712Z,52.84
2023-02-16T21:28:37.675Z,52.41
2023-02-16T21:31:09.825Z,52.88
2023-02-16T21:33:39.002Z,52.57
2023-02-16T21:36:11.182Z,52.78
2023-02-16T21:38:41.974Z,52.92
2023-02-16T21:41:25.530Z,52.84
2023-02-16T21:43:59.611Z,52.54
2023-02-16T21:46:29.519Z,52.93
2023-02-16T21:48:57.523Z,52.90
2023-02-16T21:51:28.849Z,52.74
2023-02-16T21:53:58.214Z,52.91
2023-02-16T21:56:33.589Z,52.57
2023-02-16T21:59:03.665Z,52.90
2023-02-16T22:01:34.623Z,52.74
2023-02-16T22:04:03.904Z,52.62
2023-02-16T22:06:36.239Z,52.74
2023-02-16T22:09:08.750Z,52.55
2023-02-16T22:11:37.336Z,52.76
2023-02-16T22:14:07.651Z,52.84
2023-02-16T22:16:38.575Z,52.72
2023-02-16T22:19:10.300Z,52.88
2023-02-16T22:21:41.413Z,52.99
2023-02-16T22:24:12.545Z,52.69
2023-02-16T22:26:41.068Z,52.99
2023-02-16T22:29:11.538Z,53.03
2023-02-16T22:31:40.565Z,52.87
2023-02-16T22:34:13.425Z,53.05
2023-02-16T22:36:41.839Z,52.88
2023-02-16T22:39:13.745Z,53.05
2023-02-16T22:41:42.011Z,52.77
2023-02-16T22:44:12.479Z,53.03
2023-02-16T22:46:40.835Z,53.19
2023-02-16T22:49:10.891Z,52.99
2023-02-16T22:51:39.723Z,53.28
2023-02-16T22:54:08.368Z,52.87
2023-02-16T22:56:36.700Z,52.86
2023-02-16T22:59:05.010Z,53.11
2023-02-16T23:01:35.082Z,52.89
2023-02-16T23:04:03.455Z,52.92
2023-02-16T23:06:34.390Z,52.85
2023-02-16T23:09:06.766Z,52.85
2023-02-16T23:11:36.241Z,52.97
2023-02-16T23:14:04.898Z,52.92
2023-02-16T23:16:34.722Z,52.97
2023-02-16T23:19:03.016Z,53.22
2023-02-16T23:21:33.866Z,53.14
2023-02-16T23:24:02.302Z,53.06
2023-02-16T23:26:32.142Z,53.20
2023-02-16T23:29:02.627Z,53.36
2023-02-16T23:31:34.887Z,53.15
2023-02-16T23:34:03.630Z,52.91
2023-02-16T23:36:32.670Z,53.20
2023-02-16T23:39:01.736Z,53.15
2023-02-16T23:41:30.571Z,52.99
2023-02-16T23:44:00.946Z,53.30
2023-02-16T23:46:29.984Z,53.05
2023-02-16T23:48:59.633Z,53.31
2023-02-16T23:51:28.418Z,53.57
2023-02-16T23:53:56.715Z,53.21
2023-02-16T23:56:27.479Z,53.56
2023-02-16T23:58:59.670Z,53.38
